EGPE - Inverness-Dalcross
Distance from station: E 5mi, 14km
Updated: 12/18/2017 2:20pm
Mostly Cloudy
Mostly Cloudy
 Wind from W
Wind: W 14 mph , 22 km/h
Temperature: 48°F , 9°C
Wind Chill: 42°F , 6°C
Dew Point: 45°F , 7°C
Humidity: 87%
Barometer: 30.24 inHg , 1024 hPa
Clouds: Mostly Cloudy
Visibility: 6 miles , 10 km
Cloud details: Mostly Cloudy 1900 ft
Mostly Cloudy 3100 ft
2017/12/18 22:20 EGPE 182220Z AUTO 26012KT 9999 BKN019/// BKN031/// 09/07 Q1024